Terminal Aerodrome Forecast
Issued by NWS Omaha/Valley, NE

Home | Current Version | Previous Version | Text Only | Print | Product List | Glossary Off
Versions: 1 2 3 4 5 6 7 8 9 10 11 12 13 14 15 16 17 18 19 20 21 22 23 24 25 26 27 28

000
FTUS43 KOAX 021738
TAFOFK
TAF
KOFK 021738Z 0218/0318 14012KT P6SM SCT060 OVC080
     FM022000 16014G23KT P6SM BKN060
     FM030400 17015KT 6SM BR OVC012
      TEMPO 0308/0311 2SM -FZRADZ BR
     FM031200 24007KT 4SM BR OVC009
      TEMPO 0312/0314 3SM -SN OVC007
     FM031500 33023G31KT P6SM OVC015=

USA.gov is the U.S. government's official web portal to all federal, state and local government web resources and services.